createdAt,value
2018-05-15T00:00:01.391Z,14.2
2018-05-15T00:05:01.276Z,14.1
2018-05-15T00:10:01.367Z,14.0
2018-05-15T00:15:01.259Z,13.8
2018-05-15T00:20:01.390Z,13.6
2018-05-15T00:25:01.272Z,13.5
2018-05-15T00:30:01.401Z,13.4
2018-05-15T00:40:01.388Z,13.3
2018-05-15T00:45:01.279Z,13.2
2018-05-15T00:50:01.323Z,13.1
2018-05-15T00:55:01.262Z,13.0
2018-05-15T01:00:01.322Z,12.9
2018-05-15T01:10:01.386Z,12.8
2018-05-15T01:15:01.302Z,12.7
2018-05-15T01:20:01.382Z,12.6
2018-05-15T01:30:01.335Z,12.5
2018-05-15T01:45:01.313Z,12.5
2018-05-15T01:50:01.384Z,12.4
2018-05-15T01:55:01.266Z,12.3
2018-05-15T02:00:01.412Z,12.3
2018-05-15T02:05:01.365Z,12.2
2018-05-15T02:10:01.456Z,12.1
2018-05-15T02:15:01.403Z,12.0
2018-05-15T02:20:01.465Z,11.9
2018-05-15T02:30:01.402Z,11.8
2018-05-15T02:40:01.445Z,11.7
2018-05-15T02:45:01.471Z,11.7
2018-05-15T02:50:01.429Z,11.6
2018-05-15T02:55:01.422Z,11.5
2018-05-15T03:00:01.432Z,11.5
2018-05-15T03:05:01.411Z,11.4
2018-05-15T03:15:01.415Z,11.4
2018-05-15T03:25:01.411Z,11.3
2018-05-15T03:30:01.502Z,11.4
2018-05-15T03:45:01.537Z,11.4
2018-05-15T03:50:01.426Z,11.5
2018-05-15T04:00:01.422Z,11.5
2018-05-15T04:05:01.447Z,11.4
2018-05-15T04:10:01.419Z,11.5
2018-05-15T04:15:01.383Z,11.6
2018-05-15T04:20:01.405Z,11.7
2018-05-15T04:25:01.490Z,11.9
2018-05-15T04:30:01.406Z,12.1
2018-05-15T04:35:01.703Z,12.3
2018-05-15T04:40:01.406Z,12.5
2018-05-15T04:45:01.412Z,12.7
2018-05-15T04:50:01.480Z,12.9
2018-05-15T04:55:01.408Z,13.1
2018-05-15T05:01:01.400Z,13.4
2018-05-15T05:06:01.469Z,13.6
2018-05-15T05:11:01.459Z,13.9
2018-05-15T05:16:01.414Z,14.1
2018-05-15T05:21:01.634Z,14.4
2018-05-15T05:26:01.401Z,14.6
2018-05-15T05:31:01.415Z,14.8
2018-05-15T05:36:01.417Z,14.9
2018-05-15T05:41:01.409Z,15.0
2018-05-15T05:46:01.417Z,15.1
2018-05-15T05:52:01.436Z,15.2
2018-05-15T05:57:01.262Z,15.3
2018-05-15T06:02:01.281Z,15.4
2018-05-15T06:07:01.269Z,15.5
2018-05-15T06:12:01.422Z,15.7
2018-05-15T06:17:01.288Z,15.8
2018-05-15T06:22:01.410Z,16.0
2018-05-15T06:27:01.274Z,16.1
2018-05-15T06:32:01.299Z,16.2
2018-05-15T06:37:01.281Z,16.3
2018-05-15T06:42:01.348Z,16.5
2018-05-15T06:47:01.283Z,16.6
2018-05-15T06:52:01.340Z,16.7
2018-05-15T06:57:01.281Z,16.8
2018-05-15T07:02:01.291Z,17.0
2018-05-15T07:07:01.271Z,17.1
2018-05-15T07:12:01.388Z,17.3
2018-05-15T07:17:01.271Z,17.4
2018-05-15T07:22:01.356Z,17.5
2018-05-15T07:27:01.316Z,17.7
2018-05-15T07:32:01.282Z,17.9
2018-05-15T07:37:01.372Z,18.0
2018-05-15T07:42:02.384Z,18.1
2018-05-15T07:47:01.307Z,18.2
2018-05-15T07:57:01.461Z,18.1
2018-05-15T08:12:01.426Z,18.2
2018-05-15T08:17:01.279Z,18.4
2018-05-15T08:22:01.404Z,18.6
2018-05-15T08:27:01.279Z,18.7
2018-05-15T08:32:01.395Z,18.9
2018-05-15T08:37:01.290Z,19.1
2018-05-15T08:42:01.395Z,19.2
2018-05-15T08:47:01.264Z,19.4
2018-05-15T08:52:01.400Z,19.5
2018-05-15T08:57:01.272Z,19.6
2018-05-15T09:02:01.275Z,19.7
2018-05-15T09:07:01.304Z,19.8
2018-05-15T09:12:01.416Z,19.9
2018-05-15T09:22:01.328Z,20.1
2018-05-15T09:27:01.274Z,20.2
2018-05-15T09:32:01.263Z,20.5
2018-05-15T09:37:01.347Z,20.7
2018-05-15T09:42:01.340Z,20.9
2018-05-15T09:52:01.403Z,21.0
2018-05-15T10:07:01.276Z,21.1
2018-05-15T10:12:01.349Z,21.2
2018-05-15T10:22:01.328Z,21.3
2018-05-15T10:37:01.274Z,21.3
2018-05-15T10:42:01.401Z,21.5
2018-05-15T10:47:01.268Z,21.7
2018-05-15T10:57:01.390Z,21.8
2018-05-15T11:02:01.272Z,21.9
2018-05-15T11:07:01.261Z,21.8
2018-05-15T11:17:01.118Z,21.9
2018-05-15T11:22:01.428Z,22.0
2018-05-15T11:27:01.362Z,22.1
2018-05-15T11:32:01.318Z,22.2
2018-05-15T11:37:01.274Z,22.3
2018-05-15T11:42:01.368Z,22.4
2018-05-15T11:47:01.272Z,22.6
2018-05-15T11:52:02.207Z,22.9
2018-05-15T11:58:01.372Z,23.1
2018-05-15T12:03:01.269Z,23.3
2018-05-15T12:08:01.328Z,23.4
2018-05-15T12:13:01.333Z,23.5
2018-05-15T12:28:01.332Z,23.5
2018-05-15T12:43:01.335Z,23.5
2018-05-15T12:58:01.400Z,23.6
2018-05-15T13:03:01.305Z,23.5
2018-05-15T13:14:01.443Z,23.4
2018-05-15T13:24:01.358Z,23.5
2018-05-15T13:29:01.495Z,23.6
2018-05-15T13:34:01.296Z,23.9
2018-05-15T13:39:01.405Z,24.1
2018-05-15T13:44:01.257Z,24.4
2018-05-15T13:49:01.415Z,24.5
2018-05-15T13:54:01.287Z,24.6
2018-05-15T14:04:01.137Z,24.7
2018-05-15T14:09:01.444Z,24.6
2018-05-15T14:19:01.207Z,24.5
2018-05-15T14:34:01.160Z,24.4
2018-05-15T14:39:02.322Z,24.3
2018-05-15T14:44:01.377Z,24.4
2018-05-15T14:54:01.439Z,24.5
2018-05-15T14:59:01.330Z,24.6
2018-05-15T15:04:01.274Z,24.7
2018-05-15T15:09:01.428Z,24.6
2018-05-15T15:19:01.249Z,24.5
2018-05-15T15:24:01.292Z,24.4
2018-05-15T15:39:01.333Z,24.4
2018-05-15T15:54:01.378Z,24.3
2018-05-15T15:59:01.388Z,24.2
2018-05-15T16:04:01.411Z,24.0
2018-05-15T16:09:01.344Z,23.8
2018-05-15T16:14:01.262Z,23.5
2018-05-15T16:19:01.397Z,23.3
2018-05-15T16:24:01.336Z,22.9
2018-05-15T16:29:01.393Z,22.7
2018-05-15T16:34:01.414Z,22.5
2018-05-15T16:39:01.354Z,22.3
2018-05-15T16:44:01.393Z,22.2
2018-05-15T16:49:01.451Z,22.1
2018-05-15T17:04:01.149Z,22.2
2018-05-15T17:14:01.226Z,22.3
2018-05-15T17:24:01.278Z,22.2
2018-05-15T17:29:01.234Z,22.1
2018-05-15T17:35:01.277Z,22.0
2018-05-15T17:40:01.265Z,21.8
2018-05-15T17:45:01.258Z,21.7
2018-05-15T17:50:01.250Z,21.5
2018-05-15T17:55:01.256Z,21.3
2018-05-15T18:00:01.752Z,21.1
2018-05-15T18:05:01.253Z,21.0
2018-05-15T18:10:01.259Z,20.8
2018-05-15T18:15:01.284Z,20.6
2018-05-15T18:20:01.293Z,20.4
2018-05-15T18:25:01.263Z,20.3
2018-05-15T18:30:01.296Z,20.1
2018-05-15T18:35:01.293Z,19.9
2018-05-15T18:40:01.288Z,19.8
2018-05-15T18:45:01.267Z,19.7
2018-05-15T19:00:01.295Z,19.6
2018-05-15T19:10:01.300Z,19.5
2018-05-15T19:15:01.269Z,19.4
2018-05-15T19:20:01.255Z,19.2
2018-05-15T19:25:01.261Z,19.0
2018-05-15T19:30:01.268Z,18.9
2018-05-15T19:35:01.229Z,18.8
2018-05-15T19:40:01.215Z,18.7
2018-05-15T19:45:01.401Z,18.7
2018-05-15T19:55:01.273Z,18.6
2018-05-15T20:00:01.236Z,18.6
2018-05-15T20:05:01.240Z,18.5
2018-05-15T20:10:01.250Z,18.4
2018-05-15T20:15:01.264Z,18.4
2018-05-15T20:20:01.232Z,18.3
2018-05-15T20:25:01.263Z,18.2
2018-05-15T20:30:01.201Z,18.1
2018-05-15T20:35:01.725Z,18.0
2018-05-15T20:40:01.262Z,17.9
2018-05-15T20:45:01.231Z,17.9
2018-05-15T20:50:01.230Z,17.8
2018-05-15T20:55:01.265Z,17.7
2018-05-15T21:00:01.343Z,17.7
2018-05-15T21:05:01.340Z,17.6
2018-05-15T21:15:01.366Z,17.6
2018-05-15T21:20:01.324Z,17.7
2018-05-15T21:30:01.390Z,17.7
2018-05-15T21:40:01.428Z,17.6
2018-05-15T21:45:01.280Z,17.6
2018-05-15T21:55:01.334Z,17.5
2018-05-15T22:00:01.525Z,17.5
2018-05-15T22:05:01.309Z,17.4
2018-05-15T22:15:01.416Z,17.4
2018-05-15T22:25:01.367Z,17.3
2018-05-15T22:30:02.322Z,17.3
2018-05-15T22:40:01.332Z,17.2
2018-05-15T22:45:01.351Z,17.1
2018-05-15T22:50:01.385Z,17.0
2018-05-15T22:55:01.296Z,16.8
2018-05-15T23:00:01.389Z,16.6
2018-05-15T23:15:01.314Z,16.2
2018-05-15T23:20:01.320Z,16.0
2018-05-15T23:30:01.439Z,15.9
2018-05-15T23:40:01.392Z,15.8
2018-05-15T23:45:01.289Z,15.8
2018-05-15T23:50:02.446Z,15.7
